This is the latest recevied weather packets stored in our database for station/object K0JRF-13. If no packets are shown the sender has not sent any weather packets the latest 10 day(s).
| Time | Temp. | Humidity | Pressure | Rain* | Wind** | Luminosity | Snow |
|---|---|---|---|---|---|---|---|
| 1787876388 | 22.78° C | 88% | 1014.2 hPa | 0 mm | - | - | - |
| 1787875788 | 22.78° C | 86% | 1014.2 hPa | 0 mm | - | - | - |
| 1787875188 | 23.33° C | 84% | 1013.9 hPa | 0 mm | - | - | - |
| 1787874588 | 23.89° C | 84% | 1014.2 hPa | 0 mm | - | - | - |
| 1787873988 | 24.44° C | 79% | 1013.9 hPa | 0 mm | - | - | - |
| 1787873388 | 23.89° C | 77% | 1013.9 hPa | 0 mm | - | - | - |
| 1787872788 | 24.44° C | 76% | 1014.2 hPa | 0 mm | - | - | - |
| 1787872188 | 24.44° C | 75% | 1014.2 hPa | 0 mm | - | - | - |
| 1787871588 | 24.44° C | 75% | 1014.2 hPa | 0 mm | - | - | - |
| 1787870988 | 24.44° C | 75% | 1014.2 hPa | 0 mm | - | - | - |
| 1787870388 | 25° C | 74% | 1014.2 hPa | 0 mm | - | - | - |
| 1787869788 | 25° C | 74% | 1014.2 hPa | 0 mm | - | - | - |
| 1787869188 | 25.56° C | 71% | 1014.2 hPa | 0 mm | - | - | - |
| 1787868588 | 26.11° C | 72% | 1014.2 hPa | 0 mm | - | - | - |
| 1787867988 | 26.67° C | 73% | 1014.2 hPa | 0 mm | - | - | - |
| 1787867388 | 31.67° C | 69% | 1014.2 hPa | 0 mm | - | - | - |
| 1787866788 | 32.78° C | 68% | 1013.9 hPa | 0 mm | - | - | - |
| 1787866188 | 33.33° C | 66% | 1013.9 hPa | 0 mm | - | - | - |
| 1787865588 | 33.33° C | 68% | 1013.5 hPa | 0 mm | - | - | - |
| 1787864988 | 33.33° C | 68% | 1013.9 hPa | 0 mm | - | - | - |
| 1787864388 | 32.78° C | 68% | 1014.2 hPa | 0 mm | - | - | - |
| 1787863788 | 32.22° C | 67% | 1013.9 hPa | 0 mm | - | - | - |
| 1787863188 | 32.22° C | 66% | 1013.9 hPa | 0 mm | - | - | - |
| 1787862588 | 33.33° C | 69% | 1013.9 hPa | 0 mm | - | - | - |
| 1787861988 | 29.44° C | 73% | 1013.9 hPa | 0 mm | - | - | - |
* Rain latest hour (hover to see other rain measurements)
** Current wind speed in m/s (hover to see current wind gust speed)